sensor_id;sensor_type;location;lat;lon;timestamp;P1;durP1;ratioP1;P2;durP2;ratioP2
21868;SDS011;11099;41.564;23.296;2023-12-20T01:10:35;9.60;;;7.60;;
21868;SDS011;11099;41.564;23.296;2023-12-20T01:13:09;10.63;;;6.68;;
21868;SDS011;11099;41.564;23.296;2023-12-20T01:28:38;7.90;;;5.75;;
21868;SDS011;11099;41.564;23.296;2023-12-20T01:31:29;11.63;;;8.30;;
21868;SDS011;11099;41.564;23.296;2023-12-20T05:08:04;9.50;;;5.00;;
21868;SDS011;11099;41.564;23.296;2023-12-20T05:10:30;7.90;;;5.43;;
21868;SDS011;11099;41.564;23.296;2023-12-20T05:12:56;7.32;;;5.57;;
21868;SDS011;11099;41.564;23.296;2023-12-20T05:15:22;17.30;;;10.98;;
21868;SDS011;11099;41.564;23.296;2023-12-20T05:17:49;40.50;;;24.38;;
21868;SDS011;11099;41.564;23.296;2023-12-20T05:20:23;55.35;;;30.45;;
21868;SDS011;11099;41.564;23.296;2023-12-20T05:22:55;27.60;;;16.88;;
21868;SDS011;11099;41.564;23.296;2023-12-20T05:25:21;47.30;;;29.95;;
21868;SDS011;11099;41.564;23.296;2023-12-20T05:27:47;44.88;;;28.08;;
21868;SDS011;11099;41.564;23.296;2023-12-20T05:30:14;32.13;;;20.95;;
21868;SDS011;11099;41.564;23.296;2023-12-20T05:32:43;38.05;;;24.00;;
21868;SDS011;11099;41.564;23.296;2023-12-20T05:35:12;37.13;;;24.60;;
21868;SDS011;11099;41.564;23.296;2023-12-20T05:37:42;46.83;;;30.60;;
21868;SDS011;11099;41.564;23.296;2023-12-20T05:40:32;32.97;;;21.08;;
21868;SDS011;11099;41.564;23.296;2023-12-20T05:42:59;54.70;;;28.58;;
21868;SDS011;11099;41.564;23.296;2023-12-20T05:45:27;52.50;;;27.13;;
21868;SDS011;11099;41.564;23.296;2023-12-20T05:47:57;45.83;;;29.42;;
21868;SDS011;11099;41.564;23.296;2023-12-20T05:50:27;37.88;;;24.30;;
21868;SDS011;11099;41.564;23.296;2023-12-20T05:53:02;40.97;;;25.58;;
21868;SDS011;11099;41.564;23.296;2023-12-20T05:58:19;23.85;;;17.13;;
21868;SDS011;11099;41.564;23.296;2023-12-20T06:00:49;34.42;;;24.58;;
21868;SDS011;11099;41.564;23.296;2023-12-20T06:05:46;36.03;;;23.20;;
21868;SDS011;11099;41.564;23.296;2023-12-20T06:08:14;34.78;;;23.50;;
21868;SDS011;11099;41.564;23.296;2023-12-20T06:10:44;40.42;;;26.48;;
21868;SDS011;11099;41.564;23.296;2023-12-20T06:13:17;36.80;;;23.83;;
21868;SDS011;11099;41.564;23.296;2023-12-20T06:15:43;30.30;;;18.63;;
21868;SDS011;11099;41.564;23.296;2023-12-20T06:18:09;30.85;;;20.02;;
21868;SDS011;11099;41.564;23.296;2023-12-20T06:20:43;26.17;;;17.15;;
21868;SDS011;11099;41.564;23.296;2023-12-20T06:23:14;23.20;;;16.60;;
21868;SDS011;11099;41.564;23.296;2023-12-20T06:25:40;27.02;;;17.13;;
21868;SDS011;11099;41.564;23.296;2023-12-20T06:28:08;28.05;;;17.75;;
21868;SDS011;11099;41.564;23.296;2023-12-20T06:30:52;41.88;;;26.15;;
21868;SDS011;11099;41.564;23.296;2023-12-20T06:33:31;36.70;;;22.80;;
21868;SDS011;11099;41.564;23.296;2023-12-20T06:36:10;37.67;;;22.45;;
21868;SDS011;11099;41.564;23.296;2023-12-20T06:38:41;27.73;;;18.15;;
21868;SDS011;11099;41.564;23.296;2023-12-20T06:41:12;26.13;;;15.43;;
21868;SDS011;11099;41.564;23.296;2023-12-20T06:43:58;25.13;;;14.65;;
21868;SDS011;11099;41.564;23.296;2023-12-20T06:46:51;21.35;;;13.85;;
21868;SDS011;11099;41.564;23.296;2023-12-20T06:49:45;21.48;;;14.38;;
21868;SDS011;11099;41.564;23.296;2023-12-20T06:52:17;21.65;;;13.57;;
21868;SDS011;11099;41.564;23.296;2023-12-20T06:54:49;14.35;;;10.88;;
21868;SDS011;11099;41.564;23.296;2023-12-20T06:57:22;16.10;;;10.52;;
21868;SDS011;11099;41.564;23.296;2023-12-20T07:03:50;21.75;;;11.90;;
21868;SDS011;11099;41.564;23.296;2023-12-20T07:08:56;16.25;;;11.73;;
21868;SDS011;11099;41.564;23.296;2023-12-20T07:11:49;15.88;;;11.32;;
21868;SDS011;11099;41.564;23.296;2023-12-20T07:14:26;17.35;;;11.15;;
21868;SDS011;11099;41.564;23.296;2023-12-20T07:17:13;41.33;;;24.02;;
21868;SDS011;11099;41.564;23.296;2023-12-20T07:19:41;26.38;;;17.08;;
21868;SDS011;11099;41.564;23.296;2023-12-20T07:22:22;26.05;;;18.38;;
21868;SDS011;11099;41.564;23.296;2023-12-20T07:24:48;30.58;;;20.38;;
21868;SDS011;11099;41.564;23.296;2023-12-20T07:27:22;29.02;;;20.52;;
21868;SDS011;11099;41.564;23.296;2023-12-20T07:29:49;25.08;;;18.02;;
21868;SDS011;11099;41.564;23.296;2023-12-20T07:32:20;23.60;;;15.88;;
21868;SDS011;11099;41.564;23.296;2023-12-20T07:34:49;22.42;;;15.88;;
21868;SDS011;11099;41.564;23.296;2023-12-20T07:37:41;65.93;;;42.75;;
21868;SDS011;11099;41.564;23.296;2023-12-20T07:40:10;128.23;;;81.45;;
21868;SDS011;11099;41.564;23.296;2023-12-20T07:42:46;136.15;;;88.50;;
21868;SDS011;11099;41.564;23.296;2023-12-20T07:45:33;95.82;;;60.65;;
21868;SDS011;11099;41.564;23.296;2023-12-20T07:48:01;61.78;;;40.55;;
21868;SDS011;11099;41.564;23.296;2023-12-20T07:50:30;90.63;;;56.30;;
21868;SDS011;11099;41.564;23.296;2023-12-20T07:53:08;81.00;;;45.73;;
21868;SDS011;11099;41.564;23.296;2023-12-20T07:55:39;67.00;;;38.13;;
21868;SDS011;11099;41.564;23.296;2023-12-20T07:59:12;35.08;;;24.08;;
21868;SDS011;11099;41.564;23.296;2023-12-20T08:01:59;42.13;;;29.88;;
21868;SDS011;11099;41.564;23.296;2023-12-20T08:04:32;41.70;;;26.88;;
21868;SDS011;11099;41.564;23.296;2023-12-20T08:07:00;78.45;;;44.30;;
21868;SDS011;11099;41.564;23.296;2023-12-20T08:09:28;100.38;;;50.05;;
21868;SDS011;11099;41.564;23.296;2023-12-20T08:11:56;155.15;;;76.38;;
21868;SDS011;11099;41.564;23.296;2023-12-20T08:14:28;122.53;;;60.70;;
21868;SDS011;11099;41.564;23.296;2023-12-20T08:17:05;65.30;;;38.53;;
21868;SDS011;11099;41.564;23.296;2023-12-20T08:19:52;64.30;;;34.88;;
21868;SDS011;11099;41.564;23.296;2023-12-20T08:22:32;32.28;;;20.58;;
21868;SDS011;11099;41.564;23.296;2023-12-20T08:25:00;46.63;;;28.98;;
21868;SDS011;11099;41.564;23.296;2023-12-20T08:30:48;34.65;;;22.30;;
21868;SDS011;11099;41.564;23.296;2023-12-20T08:33:21;58.72;;;36.22;;
21868;SDS011;11099;41.564;23.296;2023-12-20T08:41:23;46.00;;;30.13;;
21868;SDS011;11099;41.564;23.296;2023-12-20T08:44:03;37.25;;;24.40;;
21868;SDS011;11099;41.564;23.296;2023-12-20T08:46:31;40.28;;;25.52;;
21868;SDS011;11099;41.564;23.296;2023-12-20T08:49:00;37.45;;;24.48;;
21868;SDS011;11099;41.564;23.296;2023-12-20T08:51:37;37.22;;;23.77;;
21868;SDS011;11099;41.564;23.296;2023-12-20T08:54:07;37.80;;;23.98;;
21868;SDS011;11099;41.564;23.296;2023-12-20T08:56:35;35.97;;;24.77;;
21868;SDS011;11099;41.564;23.296;2023-12-20T08:59:20;47.83;;;30.75;;
21868;SDS011;11099;41.564;23.296;2023-12-20T09:01:50;55.03;;;35.08;;
21868;SDS011;11099;41.564;23.296;2023-12-20T09:04:22;62.20;;;40.72;;
21868;SDS011;11099;41.564;23.296;2023-12-20T09:06:50;61.13;;;37.22;;
21868;SDS011;11099;41.564;23.296;2023-12-20T09:09:19;61.03;;;39.38;;
21868;SDS011;11099;41.564;23.296;2023-12-20T09:11:52;62.03;;;39.28;;
21868;SDS011;11099;41.564;23.296;2023-12-20T09:14:23;66.25;;;41.65;;
21868;SDS011;11099;41.564;23.296;2023-12-20T09:16:53;67.20;;;40.33;;
21868;SDS011;11099;41.564;23.296;2023-12-20T09:19:27;62.85;;;41.63;;
21868;SDS011;11099;41.564;23.296;2023-12-20T09:21:59;60.50;;;39.45;;
21868;SDS011;11099;41.564;23.296;2023-12-20T09:24:41;67.28;;;40.90;;
21868;SDS011;11099;41.564;23.296;2023-12-20T09:27:12;58.67;;;38.55;;
21868;SDS011;11099;41.564;23.296;2023-12-20T09:50:23;49.17;;;31.02;;
21868;SDS011;11099;41.564;23.296;2023-12-20T09:52:53;53.45;;;31.30;;
21868;SDS011;11099;41.564;23.296;2023-12-20T09:55:23;51.70;;;30.48;;
21868;SDS011;11099;41.564;23.296;2023-12-20T10:06:22;43.47;;;28.75;;
21868;SDS011;11099;41.564;23.296;2023-12-20T10:08:53;40.50;;;28.08;;
21868;SDS011;11099;41.564;23.296;2023-12-20T10:11:20;49.15;;;30.25;;
21868;SDS011;11099;41.564;23.296;2023-12-20T10:13:50;43.47;;;29.30;;
21868;SDS011;11099;41.564;23.296;2023-12-20T14:41:25;33.67;;;22.92;;
21868;SDS011;11099;41.564;23.296;2023-12-20T14:43:55;27.65;;;19.77;;
21868;SDS011;11099;41.564;23.296;2023-12-20T14:46:26;38.00;;;25.20;;
21868;SDS011;11099;41.564;23.296;2023-12-20T14:48:57;40.50;;;29.25;;
21868;SDS011;11099;41.564;23.296;2023-12-20T15:13:09;26.45;;;16.95;;
21868;SDS011;11099;41.564;23.296;2023-12-20T15:23:31;67.03;;;42.22;;
21868;SDS011;11099;41.564;23.296;2023-12-20T15:41:38;88.28;;;55.40;;
21868;SDS011;11099;41.564;23.296;2023-12-20T15:44:17;59.90;;;41.35;;
21868;SDS011;11099;41.564;23.296;2023-12-20T15:46:55;84.80;;;56.50;;
21868;SDS011;11099;41.564;23.296;2023-12-20T15:49:28;110.45;;;69.05;;
21868;SDS011;11099;41.564;23.296;2023-12-20T15:52:02;77.30;;;47.00;;
21868;SDS011;11099;41.564;23.296;2023-12-20T15:54:37;48.92;;;31.63;;
21868;SDS011;11099;41.564;23.296;2023-12-20T15:57:16;59.72;;;39.25;;
21868;SDS011;11099;41.564;23.296;2023-12-20T16:23:23;66.78;;;44.15;;
21868;SDS011;11099;41.564;23.296;2023-12-20T17:45:12;52.10;;;29.30;;
